Terminal Aerodrome Forecast
Issued by NWS Atlanta, GA

Home | Current Version | Previous Version | Text Only | Print | Product List | Glossary On
Versions: 1 2 3 4 5 6 7 8 9 10 11 12 13 14 15 16 17 18 19 20 21 22 23 24 25 26 27 28 29 30 31 32 33 34 35 36 37 38 39 40 41 42
000
FTUS42 KFFC 290135 AAA
TAFATL
TAF AMD
KATL 290135Z 2902/3006 16004KT P6SM BKN250
     FM291100 15004KT P6SM FEW008 SCT020
      TEMPO 2911/2913 5SM BR
     FM291600 16010KT P6SM SCT035
     FM291800 16012G18KT P6SM SCT040
     FM300000 15007KT P6SM SCT250=

USA.gov is the U.S. government's official web portal to all federal, state and local government web resources and services.